sensor_id;sensor_type;location;lat;lon;timestamp;temperature;humidity
52787;DHT22;38661;53.152;5.846;2023-07-24T00:00:15;17.40;90.50
52787;DHT22;38661;53.152;5.846;2023-07-24T00:02:40;17.30;90.50
52787;DHT22;38661;53.152;5.846;2023-07-24T00:05:06;17.30;91.00
52787;DHT22;38661;53.152;5.846;2023-07-24T00:07:32;17.30;90.70
52787;DHT22;38661;53.152;5.846;2023-07-24T00:09:58;17.30;90.80
52787;DHT22;38661;53.152;5.846;2023-07-24T00:12:24;17.30;90.70
52787;DHT22;38661;53.152;5.846;2023-07-24T00:14:51;17.30;91.30
52787;DHT22;38661;53.152;5.846;2023-07-24T00:17:17;17.20;91.50
52787;DHT22;38661;53.152;5.846;2023-07-24T00:19:43;17.20;91.20
52787;DHT22;38661;53.152;5.846;2023-07-24T00:22:08;17.20;91.60
52787;DHT22;38661;53.152;5.846;2023-07-24T00:24:34;17.20;91.20
52787;DHT22;38661;53.152;5.846;2023-07-24T00:27:00;17.20;91.00
52787;DHT22;38661;53.152;5.846;2023-07-24T00:29:25;17.10;91.70
52787;DHT22;38661;53.152;5.846;2023-07-24T00:31:51;17.10;91.70
52787;DHT22;38661;53.152;5.846;2023-07-24T00:34:17;17.10;91.50
52787;DHT22;38661;53.152;5.846;2023-07-24T00:36:42;17.00;91.70
52787;DHT22;38661;53.152;5.846;2023-07-24T00:39:08;17.10;91.50
52787;DHT22;38661;53.152;5.846;2023-07-24T00:41:34;17.00;91.80
52787;DHT22;38661;53.152;5.846;2023-07-24T00:43:59;17.00;91.80
52787;DHT22;38661;53.152;5.846;2023-07-24T00:46:25;17.00;92.00
52787;DHT22;38661;53.152;5.846;2023-07-24T00:48:51;17.00;91.90
52787;DHT22;38661;53.152;5.846;2023-07-24T00:51:18;17.00;92.30
52787;DHT22;38661;53.152;5.846;2023-07-24T00:53:44;17.00;91.80
52787;DHT22;38661;53.152;5.846;2023-07-24T00:56:10;17.00;92.10
52787;DHT22;38661;53.152;5.846;2023-07-24T00:58:37;17.00;92.00
52787;DHT22;38661;53.152;5.846;2023-07-24T01:01:04;16.90;92.30
52787;DHT22;38661;53.152;5.846;2023-07-24T01:03:35;17.00;92.20
52787;DHT22;38661;53.152;5.846;2023-07-24T01:06:04;16.90;92.50
52787;DHT22;38661;53.152;5.846;2023-07-24T01:08:30;16.90;92.90
52787;DHT22;38661;53.152;5.846;2023-07-24T01:11:04;16.90;92.80
52787;DHT22;38661;53.152;5.846;2023-07-24T01:13:36;16.90;92.70
52787;DHT22;38661;53.152;5.846;2023-07-24T01:16:09;16.90;93.00
52787;DHT22;38661;53.152;5.846;2023-07-24T01:18:39;16.90;92.70
52787;DHT22;38661;53.152;5.846;2023-07-24T01:21:06;16.90;93.00
52787;DHT22;38661;53.152;5.846;2023-07-24T01:26:01;16.90;92.90
52787;DHT22;38661;53.152;5.846;2023-07-24T01:28:28;16.90;92.90
52787;DHT22;38661;53.152;5.846;2023-07-24T01:30:54;16.90;93.10
52787;DHT22;38661;53.152;5.846;2023-07-24T01:33:21;16.90;93.00
52787;DHT22;38661;53.152;5.846;2023-07-24T01:35:57;16.90;93.10
52787;DHT22;38661;53.152;5.846;2023-07-24T01:38:27;16.90;93.40
52787;DHT22;38661;53.152;5.846;2023-07-24T01:40:56;16.90;93.60
52787;DHT22;38661;53.152;5.846;2023-07-24T01:43:24;16.90;93.60
52787;DHT22;38661;53.152;5.846;2023-07-24T01:45:51;16.90;93.60
52787;DHT22;38661;53.152;5.846;2023-07-24T01:48:17;16.90;93.70
52787;DHT22;38661;53.152;5.846;2023-07-24T01:50:42;16.90;93.80
52787;DHT22;38661;53.152;5.846;2023-07-24T01:53:08;16.90;93.50
52787;DHT22;38661;53.152;5.846;2023-07-24T01:55:35;17.00;93.60
52787;DHT22;38661;53.152;5.846;2023-07-24T01:58:00;17.00;93.60
52787;DHT22;38661;53.152;5.846;2023-07-24T02:00:26;17.00;93.70
52787;DHT22;38661;53.152;5.846;2023-07-24T02:02:52;17.10;93.70
52787;DHT22;38661;53.152;5.846;2023-07-24T02:05:17;17.10;93.50
52787;DHT22;38661;53.152;5.846;2023-07-24T02:07:43;17.10;93.50
52787;DHT22;38661;53.152;5.846;2023-07-24T02:10:09;17.10;93.60
52787;DHT22;38661;53.152;5.846;2023-07-24T02:12:35;17.10;93.80
52787;DHT22;38661;53.152;5.846;2023-07-24T02:15:01;17.10;93.70
52787;DHT22;38661;53.152;5.846;2023-07-24T02:17:26;17.10;93.80
52787;DHT22;38661;53.152;5.846;2023-07-24T02:19:52;17.20;93.60
52787;DHT22;38661;53.152;5.846;2023-07-24T02:22:18;17.10;93.40
52787;DHT22;38661;53.152;5.846;2023-07-24T02:24:43;17.20;93.50
52787;DHT22;38661;53.152;5.846;2023-07-24T02:27:13;17.20;93.60
52787;DHT22;38661;53.152;5.846;2023-07-24T02:29:41;17.10;93.60
52787;DHT22;38661;53.152;5.846;2023-07-24T02:32:07;17.10;93.70
52787;DHT22;38661;53.152;5.846;2023-07-24T02:34:33;17.10;93.70
52787;DHT22;38661;53.152;5.846;2023-07-24T02:36:59;17.20;93.70
52787;DHT22;38661;53.152;5.846;2023-07-24T02:39:24;17.10;93.70
52787;DHT22;38661;53.152;5.846;2023-07-24T02:41:50;17.10;93.70
52787;DHT22;38661;53.152;5.846;2023-07-24T02:44:16;17.10;93.90
52787;DHT22;38661;53.152;5.846;2023-07-24T02:46:41;17.10;93.60
52787;DHT22;38661;53.152;5.846;2023-07-24T02:49:07;17.10;93.50
52787;DHT22;38661;53.152;5.846;2023-07-24T02:51:33;17.10;93.70
52787;DHT22;38661;53.152;5.846;2023-07-24T02:53:59;17.10;93.60
52787;DHT22;38661;53.152;5.846;2023-07-24T02:56:25;17.00;93.60
52787;DHT22;38661;53.152;5.846;2023-07-24T02:58:50;17.10;93.50
52787;DHT22;38661;53.152;5.846;2023-07-24T03:01:16;17.10;93.50
52787;DHT22;38661;53.152;5.846;2023-07-24T03:03:42;17.00;93.80
52787;DHT22;38661;53.152;5.846;2023-07-24T03:06:07;17.10;93.70
52787;DHT22;38661;53.152;5.846;2023-07-24T03:08:33;17.00;93.60
52787;DHT22;38661;53.152;5.846;2023-07-24T03:10:59;17.00;93.60
52787;DHT22;38661;53.152;5.846;2023-07-24T03:13:25;17.10;93.60
52787;DHT22;38661;53.152;5.846;2023-07-24T03:15:56;17.10;93.60
52787;DHT22;38661;53.152;5.846;2023-07-24T03:18:22;17.10;93.30
52787;DHT22;38661;53.152;5.846;2023-07-24T03:20:47;17.10;93.60
52787;DHT22;38661;53.152;5.846;2023-07-24T03:23:13;17.10;93.70
52787;DHT22;38661;53.152;5.846;2023-07-24T03:25:39;17.10;93.60
52787;DHT22;38661;53.152;5.846;2023-07-24T03:28:05;17.10;93.70
52787;DHT22;38661;53.152;5.846;2023-07-24T03:30:30;17.10;93.80
52787;DHT22;38661;53.152;5.846;2023-07-24T03:32:57;17.10;93.60
52787;DHT22;38661;53.152;5.846;2023-07-24T03:35:22;17.10;93.80
52787;DHT22;38661;53.152;5.846;2023-07-24T03:37:48;17.10;93.60
52787;DHT22;38661;53.152;5.846;2023-07-24T03:40:14;17.10;93.50
52787;DHT22;38661;53.152;5.846;2023-07-24T03:42:41;17.20;93.60
52787;DHT22;38661;53.152;5.846;2023-07-24T03:45:07;17.20;93.60
52787;DHT22;38661;53.152;5.846;2023-07-24T03:47:33;17.20;93.40
52787;DHT22;38661;53.152;5.846;2023-07-24T03:49:59;17.20;93.50
52787;DHT22;38661;53.152;5.846;2023-07-24T03:52:24;17.20;93.30
52787;DHT22;38661;53.152;5.846;2023-07-24T03:54:51;17.20;93.20
52787;DHT22;38661;53.152;5.846;2023-07-24T03:57:17;17.20;93.40
52787;DHT22;38661;53.152;5.846;2023-07-24T03:59:43;17.20;93.40
52787;DHT22;38661;53.152;5.846;2023-07-24T04:02:09;17.20;93.30
52787;DHT22;38661;53.152;5.846;2023-07-24T04:04:35;17.20;93.40
52787;DHT22;38661;53.152;5.846;2023-07-24T04:07:00;17.30;93.20
52787;DHT22;38661;53.152;5.846;2023-07-24T04:09:26;17.30;93.10
52787;DHT22;38661;53.152;5.846;2023-07-24T04:11:52;17.20;93.10
52787;DHT22;38661;53.152;5.846;2023-07-24T04:14:18;17.30;93.20
52787;DHT22;38661;53.152;5.846;2023-07-24T04:16:43;17.30;93.10
52787;DHT22;38661;53.152;5.846;2023-07-24T04:19:10;17.30;93.20
52787;DHT22;38661;53.152;5.846;2023-07-24T04:21:36;17.30;93.20
52787;DHT22;38661;53.152;5.846;2023-07-24T04:24:01;17.30;93.10
52787;DHT22;38661;53.152;5.846;2023-07-24T04:26:27;17.30;93.20
52787;DHT22;38661;53.152;5.846;2023-07-24T04:28:53;17.30;93.00
52787;DHT22;38661;53.152;5.846;2023-07-24T04:31:19;17.30;93.10
52787;DHT22;38661;53.152;5.846;2023-07-24T04:33:45;17.40;93.10
52787;DHT22;38661;53.152;5.846;2023-07-24T04:36:10;17.30;93.20
52787;DHT22;38661;53.152;5.846;2023-07-24T04:38:36;17.30;93.20
52787;DHT22;38661;53.152;5.846;2023-07-24T04:41:02;17.40;93.30
52787;DHT22;38661;53.152;5.846;2023-07-24T04:43:28;17.40;93.10
52787;DHT22;38661;53.152;5.846;2023-07-24T04:45:54;17.40;93.10
52787;DHT22;38661;53.152;5.846;2023-07-24T04:48:20;17.40;93.10
52787;DHT22;38661;53.152;5.846;2023-07-24T04:50:46;17.40;93.10
52787;DHT22;38661;53.152;5.846;2023-07-24T04:53:12;17.40;93.20
52787;DHT22;38661;53.152;5.846;2023-07-24T04:55:38;17.40;93.10
52787;DHT22;38661;53.152;5.846;2023-07-24T04:58:04;17.50;93.20
52787;DHT22;38661;53.152;5.846;2023-07-24T05:00:29;17.40;93.20
52787;DHT22;38661;53.152;5.846;2023-07-24T05:02:55;17.50;93.20
52787;DHT22;38661;53.152;5.846;2023-07-24T05:05:21;17.50;93.20
52787;DHT22;38661;53.152;5.846;2023-07-24T05:07:46;17.40;93.30
52787;DHT22;38661;53.152;5.846;2023-07-24T05:10:12;17.50;93.30
52787;DHT22;38661;53.152;5.846;2023-07-24T05:12:41;17.50;93.20
52787;DHT22;38661;53.152;5.846;2023-07-24T05:15:08;17.50;93.20
52787;DHT22;38661;53.152;5.846;2023-07-24T05:17:33;17.50;93.20
52787;DHT22;38661;53.152;5.846;2023-07-24T05:19:59;17.50;93.20
52787;DHT22;38661;53.152;5.846;2023-07-24T05:22:25;17.40;93.30
52787;DHT22;38661;53.152;5.846;2023-07-24T05:24:50;17.50;93.20
52787;DHT22;38661;53.152;5.846;2023-07-24T05:27:16;17.50;93.20
52787;DHT22;38661;53.152;5.846;2023-07-24T05:29:42;17.50;93.10
52787;DHT22;38661;53.152;5.846;2023-07-24T05:32:08;17.50;93.10
52787;DHT22;38661;53.152;5.846;2023-07-24T05:34:33;17.50;93.30
52787;DHT22;38661;53.152;5.846;2023-07-24T05:36:59;17.50;93.00
52787;DHT22;38661;53.152;5.846;2023-07-24T05:39:25;17.50;93.10
52787;DHT22;38661;53.152;5.846;2023-07-24T05:41:50;17.50;93.10
52787;DHT22;38661;53.152;5.846;2023-07-24T05:44:16;17.50;93.00
52787;DHT22;38661;53.152;5.846;2023-07-24T05:46:42;17.60;93.20
52787;DHT22;38661;53.152;5.846;2023-07-24T05:49:07;17.60;93.30
52787;DHT22;38661;53.152;5.846;2023-07-24T05:51:33;17.60;93.10
52787;DHT22;38661;53.152;5.846;2023-07-24T05:53:59;17.60;93.10
52787;DHT22;38661;53.152;5.846;2023-07-24T05:56:24;17.70;93.10
52787;DHT22;38661;53.152;5.846;2023-07-24T05:58:50;17.70;93.00
52787;DHT22;38661;53.152;5.846;2023-07-24T06:01:16;17.70;93.00
52787;DHT22;38661;53.152;5.846;2023-07-24T06:03:41;17.70;92.90
52787;DHT22;38661;53.152;5.846;2023-07-24T06:06:07;17.80;92.80
52787;DHT22;38661;53.152;5.846;2023-07-24T06:08:33;17.80;92.80
52787;DHT22;38661;53.152;5.846;2023-07-24T06:10:58;17.80;92.80
52787;DHT22;38661;53.152;5.846;2023-07-24T06:13:24;17.80;92.70
52787;DHT22;38661;53.152;5.846;2023-07-24T06:15:51;17.90;92.80
52787;DHT22;38661;53.152;5.846;2023-07-24T06:18:17;17.90;92.80
52787;DHT22;38661;53.152;5.846;2023-07-24T06:20:43;18.00;92.70
52787;DHT22;38661;53.152;5.846;2023-07-24T06:23:09;18.00;92.80
52787;DHT22;38661;53.152;5.846;2023-07-24T06:25:34;18.00;92.60
52787;DHT22;38661;53.152;5.846;2023-07-24T06:28:00;18.10;92.60
52787;DHT22;38661;53.152;5.846;2023-07-24T06:30:26;18.20;92.40
52787;DHT22;38661;53.152;5.846;2023-07-24T06:32:52;18.20;92.40
52787;DHT22;38661;53.152;5.846;2023-07-24T06:35:18;18.30;92.30
52787;DHT22;38661;53.152;5.846;2023-07-24T06:37:43;18.30;92.10
52787;DHT22;38661;53.152;5.846;2023-07-24T06:40:10;18.30;92.10
52787;DHT22;38661;53.152;5.846;2023-07-24T06:42:36;18.40;91.90
52787;DHT22;38661;53.152;5.846;2023-07-24T06:45:02;18.40;91.90
52787;DHT22;38661;53.152;5.846;2023-07-24T06:47:27;18.50;91.50
52787;DHT22;38661;53.152;5.846;2023-07-24T06:49:53;18.40;91.50
52787;DHT22;38661;53.152;5.846;2023-07-24T06:52:19;18.50;91.60
52787;DHT22;38661;53.152;5.846;2023-07-24T06:54:44;18.50;91.60
52787;DHT22;38661;53.152;5.846;2023-07-24T06:57:10;18.60;91.40
52787;DHT22;38661;53.152;5.846;2023-07-24T06:59:36;18.60;91.30
52787;DHT22;38661;53.152;5.846;2023-07-24T07:02:01;18.50;91.20
52787;DHT22;38661;53.152;5.846;2023-07-24T07:04:27;18.60;91.30
52787;DHT22;38661;53.152;5.846;2023-07-24T07:06:53;18.70;91.20
52787;DHT22;38661;53.152;5.846;2023-07-24T07:09:19;18.60;91.00
52787;DHT22;38661;53.152;5.846;2023-07-24T07:11:44;18.60;91.00
52787;DHT22;38661;53.152;5.846;2023-07-24T07:14:10;18.60;91.10
52787;DHT22;38661;53.152;5.846;2023-07-24T07:16:36;18.70;91.10
52787;DHT22;38661;53.152;5.846;2023-07-24T07:19:02;18.60;91.10
52787;DHT22;38661;53.152;5.846;2023-07-24T07:21:28;18.60;91.10
52787;DHT22;38661;53.152;5.846;2023-07-24T07:23:53;18.60;91.30
52787;DHT22;38661;53.152;5.846;2023-07-24T07:26:20;18.60;91.30
52787;DHT22;38661;53.152;5.846;2023-07-24T07:28:46;18.60;91.00
52787;DHT22;38661;53.152;5.846;2023-07-24T07:31:11;18.60;91.00
52787;DHT22;38661;53.152;5.846;2023-07-24T07:33:37;18.70;90.80
52787;DHT22;38661;53.152;5.846;2023-07-24T07:36:03;18.70;90.60
52787;DHT22;38661;53.152;5.846;2023-07-24T07:38:30;18.80;90.60
52787;DHT22;38661;53.152;5.846;2023-07-24T07:40:55;18.70;90.60
52787;DHT22;38661;53.152;5.846;2023-07-24T07:43:21;18.80;90.50
52787;DHT22;38661;53.152;5.846;2023-07-24T07:45:47;18.80;90.30
52787;DHT22;38661;53.152;5.846;2023-07-24T07:48:13;18.70;90.10
52787;DHT22;38661;53.152;5.846;2023-07-24T07:50:39;18.80;90.30
52787;DHT22;38661;53.152;5.846;2023-07-24T07:53:05;18.90;90.00
52787;DHT22;38661;53.152;5.846;2023-07-24T07:55:30;18.90;90.00
52787;DHT22;38661;53.152;5.846;2023-07-24T07:57:56;18.90;89.80
52787;DHT22;38661;53.152;5.846;2023-07-24T08:00:22;18.90;89.90
52787;DHT22;38661;53.152;5.846;2023-07-24T08:02:48;19.00;89.70
52787;DHT22;38661;53.152;5.846;2023-07-24T08:05:13;19.00;89.60
52787;DHT22;38661;53.152;5.846;2023-07-24T08:07:39;19.20;89.30
52787;DHT22;38661;53.152;5.846;2023-07-24T08:10:05;19.30;89.50
52787;DHT22;38661;53.152;5.846;2023-07-24T08:12:32;19.40;89.10
52787;DHT22;38661;53.152;5.846;2023-07-24T08:14:57;19.50;88.10
52787;DHT22;38661;53.152;5.846;2023-07-24T08:17:23;19.40;88.40
52787;DHT22;38661;53.152;5.846;2023-07-24T08:19:49;19.50;88.60
52787;DHT22;38661;53.152;5.846;2023-07-24T08:22:15;19.50;88.40
52787;DHT22;38661;53.152;5.846;2023-07-24T08:24:40;19.50;88.20
52787;DHT22;38661;53.152;5.846;2023-07-24T08:27:06;19.50;88.20
52787;DHT22;38661;53.152;5.846;2023-07-24T08:29:32;19.60;87.50
52787;DHT22;38661;53.152;5.846;2023-07-24T08:31:58;19.80;86.90
52787;DHT22;38661;53.152;5.846;2023-07-24T08:34:24;19.90;87.20
52787;DHT22;38661;53.152;5.846;2023-07-24T08:36:50;19.90;86.70
52787;DHT22;38661;53.152;5.846;2023-07-24T08:39:16;19.90;86.00
52787;DHT22;38661;53.152;5.846;2023-07-24T08:41:41;19.90;85.60
52787;DHT22;38661;53.152;5.846;2023-07-24T08:44:08;19.80;85.80
52787;DHT22;38661;53.152;5.846;2023-07-24T08:46:38;19.80;85.90
52787;DHT22;38661;53.152;5.846;2023-07-24T08:49:12;19.80;86.20
52787;DHT22;38661;53.152;5.846;2023-07-24T08:51:43;19.70;87.20
52787;DHT22;38661;53.152;5.846;2023-07-24T08:54:11;19.60;87.70
52787;DHT22;38661;53.152;5.846;2023-07-24T08:56:37;19.50;89.00
52787;DHT22;38661;53.152;5.846;2023-07-24T08:59:03;19.30;89.60
52787;DHT22;38661;53.152;5.846;2023-07-24T09:01:29;19.20;89.80
52787;DHT22;38661;53.152;5.846;2023-07-24T09:03:56;19.00;90.30
52787;DHT22;38661;53.152;5.846;2023-07-24T09:06:22;18.90;90.40
52787;DHT22;38661;53.152;5.846;2023-07-24T09:08:48;18.90;90.70
52787;DHT22;38661;53.152;5.846;2023-07-24T09:11:14;18.80;90.90
52787;DHT22;38661;53.152;5.846;2023-07-24T09:13:43;18.90;91.00
52787;DHT22;38661;53.152;5.846;2023-07-24T09:16:21;18.80;90.90
52787;DHT22;38661;53.152;5.846;2023-07-24T09:18:47;18.80;91.00
52787;DHT22;38661;53.152;5.846;2023-07-24T09:21:13;18.80;91.20
52787;DHT22;38661;53.152;5.846;2023-07-24T09:23:39;18.80;90.90
52787;DHT22;38661;53.152;5.846;2023-07-24T09:26:09;18.70;91.00
52787;DHT22;38661;53.152;5.846;2023-07-24T09:28:35;18.60;91.00
52787;DHT22;38661;53.152;5.846;2023-07-24T09:31:01;18.50;91.40
52787;DHT22;38661;53.152;5.846;2023-07-24T09:33:36;18.50;91.70
52787;DHT22;38661;53.152;5.846;2023-07-24T09:36:03;18.50;91.90
52787;DHT22;38661;53.152;5.846;2023-07-24T09:38:29;18.50;92.00
52787;DHT22;38661;53.152;5.846;2023-07-24T09:40:56;18.50;92.40
52787;DHT22;38661;53.152;5.846;2023-07-24T09:43:24;18.50;92.50
52787;DHT22;38661;53.152;5.846;2023-07-24T09:45:51;18.70;92.30
52787;DHT22;38661;53.152;5.846;2023-07-24T09:48:18;18.70;92.40
52787;DHT22;38661;53.152;5.846;2023-07-24T09:50:47;18.80;92.40
52787;DHT22;38661;53.152;5.846;2023-07-24T09:53:32;18.90;92.10
52787;DHT22;38661;53.152;5.846;2023-07-24T09:58:26;19.20;91.60
52787;DHT22;38661;53.152;5.846;2023-07-24T10:00:53;19.40;91.30
52787;DHT22;38661;53.152;5.846;2023-07-24T10:03:19;19.60;90.60
52787;DHT22;38661;53.152;5.846;2023-07-24T10:05:47;19.60;90.50
52787;DHT22;38661;53.152;5.846;2023-07-24T10:08:14;19.50;89.80
52787;DHT22;38661;53.152;5.846;2023-07-24T10:10:40;19.40;88.70
52787;DHT22;38661;53.152;5.846;2023-07-24T10:13:07;19.40;89.00
52787;DHT22;38661;53.152;5.846;2023-07-24T10:15:37;19.40;88.90
52787;DHT22;38661;53.152;5.846;2023-07-24T10:18:07;19.60;88.70
52787;DHT22;38661;53.152;5.846;2023-07-24T10:20:40;19.70;88.40
52787;DHT22;38661;53.152;5.846;2023-07-24T10:23:11;19.80;87.80
52787;DHT22;38661;53.152;5.846;2023-07-24T10:25:44;19.80;87.40
52787;DHT22;38661;53.152;5.846;2023-07-24T10:28:11;19.90;87.00
52787;DHT22;38661;53.152;5.846;2023-07-24T10:30:41;20.00;86.80
52787;DHT22;38661;53.152;5.846;2023-07-24T10:33:30;19.90;86.10
52787;DHT22;38661;53.152;5.846;2023-07-24T10:36:08;20.00;86.10
52787;DHT22;38661;53.152;5.846;2023-07-24T10:38:40;20.00;85.50
52787;DHT22;38661;53.152;5.846;2023-07-24T10:41:07;20.00;85.00
52787;DHT22;38661;53.152;5.846;2023-07-24T10:43:48;19.90;85.20
52787;DHT22;38661;53.152;5.846;2023-07-24T10:46:15;20.00;85.30
52787;DHT22;38661;53.152;5.846;2023-07-24T10:48:46;20.20;85.00
52787;DHT22;38661;53.152;5.846;2023-07-24T10:51:12;20.40;84.30
52787;DHT22;38661;53.152;5.846;2023-07-24T10:53:48;20.40;83.90
52787;DHT22;38661;53.152;5.846;2023-07-24T10:56:15;20.40;84.10
52787;DHT22;38661;53.152;5.846;2023-07-24T10:58:41;20.20;84.10
52787;DHT22;38661;53.152;5.846;2023-07-24T11:01:07;20.10;84.40
52787;DHT22;38661;53.152;5.846;2023-07-24T11:03:39;20.00;84.80
52787;DHT22;38661;53.152;5.846;2023-07-24T11:06:15;20.10;84.30
52787;DHT22;38661;53.152;5.846;2023-07-24T11:08:41;20.20;83.90
52787;DHT22;38661;53.152;5.846;2023-07-24T11:11:08;20.30;83.70
52787;DHT22;38661;53.152;5.846;2023-07-24T11:13:34;20.60;82.70
52787;DHT22;38661;53.152;5.846;2023-07-24T11:16:08;20.80;82.40
52787;DHT22;38661;53.152;5.846;2023-07-24T11:18:43;20.90;82.20
52787;DHT22;38661;53.152;5.846;2023-07-24T11:21:09;21.00;81.30
52787;DHT22;38661;53.152;5.846;2023-07-24T11:23:37;21.20;81.00
52787;DHT22;38661;53.152;5.846;2023-07-24T11:26:04;21.20;80.10
52787;DHT22;38661;53.152;5.846;2023-07-24T11:28:39;21.40;80.70
52787;DHT22;38661;53.152;5.846;2023-07-24T11:31:05;21.50;79.20
52787;DHT22;38661;53.152;5.846;2023-07-24T11:33:31;21.50;78.00
52787;DHT22;38661;53.152;5.846;2023-07-24T11:35:57;21.80;78.10
52787;DHT22;38661;53.152;5.846;2023-07-24T11:38:23;22.00;77.40
52787;DHT22;38661;53.152;5.846;2023-07-24T11:40:49;22.10;76.00
52787;DHT22;38661;53.152;5.846;2023-07-24T11:43:33;22.00;75.70
52787;DHT22;38661;53.152;5.846;2023-07-24T11:45:59;22.00;75.50
52787;DHT22;38661;53.152;5.846;2023-07-24T11:48:25;22.20;74.10
52787;DHT22;38661;53.152;5.846;2023-07-24T11:50:53;22.40;73.80
52787;DHT22;38661;53.152;5.846;2023-07-24T11:55:55;22.30;72.20
52787;DHT22;38661;53.152;5.846;2023-07-24T11:58:22;22.30;72.90
52787;DHT22;38661;53.152;5.846;2023-07-24T12:00:50;22.40;72.60
52787;DHT22;38661;53.152;5.846;2023-07-24T12:03:29;22.10;71.90
52787;DHT22;38661;53.152;5.846;2023-07-24T12:05:55;22.00;71.70
52787;DHT22;38661;53.152;5.846;2023-07-24T12:08:30;22.00;72.00
52787;DHT22;38661;53.152;5.846;2023-07-24T12:10:57;22.20;71.50
52787;DHT22;38661;53.152;5.846;2023-07-24T12:13:23;22.50;71.90
52787;DHT22;38661;53.152;5.846;2023-07-24T12:15:49;22.70;69.60
52787;DHT22;38661;53.152;5.846;2023-07-24T12:18:15;22.70;70.40
52787;DHT22;38661;53.152;5.846;2023-07-24T12:20:41;22.60;70.80
52787;DHT22;38661;53.152;5.846;2023-07-24T12:23:06;22.40;71.10
52787;DHT22;38661;53.152;5.846;2023-07-24T12:25:32;22.30;72.60
52787;DHT22;38661;53.152;5.846;2023-07-24T12:27:58;22.00;73.90
52787;DHT22;38661;53.152;5.846;2023-07-24T12:30:23;21.90;74.20
52787;DHT22;38661;53.152;5.846;2023-07-24T12:32:49;21.70;75.50
52787;DHT22;38661;53.152;5.846;2023-07-24T12:35:16;21.50;76.00
52787;DHT22;38661;53.152;5.846;2023-07-24T12:37:42;21.40;76.10
52787;DHT22;38661;53.152;5.846;2023-07-24T12:40:08;21.40;76.60
52787;DHT22;38661;53.152;5.846;2023-07-24T12:42:34;21.30;77.60
52787;DHT22;38661;53.152;5.846;2023-07-24T12:45:00;21.40;77.80
52787;DHT22;38661;53.152;5.846;2023-07-24T12:47:30;21.40;76.90
52787;DHT22;38661;53.152;5.846;2023-07-24T12:49:56;21.20;77.50
52787;DHT22;38661;53.152;5.846;2023-07-24T12:52:23;21.00;76.80
52787;DHT22;38661;53.152;5.846;2023-07-24T12:54:49;20.90;77.00
52787;DHT22;38661;53.152;5.846;2023-07-24T12:57:15;20.60;77.60
52787;DHT22;38661;53.152;5.846;2023-07-24T12:59:41;20.50;77.60
52787;DHT22;38661;53.152;5.846;2023-07-24T13:02:06;20.40;78.40
52787;DHT22;38661;53.152;5.846;2023-07-24T13:04:32;20.30;78.60
52787;DHT22;38661;53.152;5.846;2023-07-24T13:06:58;20.20;79.00
52787;DHT22;38661;53.152;5.846;2023-07-24T13:09:26;20.20;79.20
52787;DHT22;38661;53.152;5.846;2023-07-24T13:11:53;20.10;79.10
52787;DHT22;38661;53.152;5.846;2023-07-24T13:14:20;20.00;79.50
52787;DHT22;38661;53.152;5.846;2023-07-24T13:16:46;20.00;79.50
52787;DHT22;38661;53.152;5.846;2023-07-24T13:19:12;20.00;79.70
52787;DHT22;38661;53.152;5.846;2023-07-24T13:21:38;20.10;79.70
52787;DHT22;38661;53.152;5.846;2023-07-24T13:24:06;20.00;78.90
52787;DHT22;38661;53.152;5.846;2023-07-24T13:26:32;20.00;79.10
52787;DHT22;38661;53.152;5.846;2023-07-24T13:28:57;19.90;79.50
52787;DHT22;38661;53.152;5.846;2023-07-24T13:31:23;19.80;79.40
52787;DHT22;38661;53.152;5.846;2023-07-24T13:33:49;19.90;79.20
52787;DHT22;38661;53.152;5.846;2023-07-24T13:36:15;19.80;78.60
52787;DHT22;38661;53.152;5.846;2023-07-24T13:38:41;19.80;78.90
52787;DHT22;38661;53.152;5.846;2023-07-24T13:41:07;19.70;78.60
52787;DHT22;38661;53.152;5.846;2023-07-24T13:43:34;19.50;78.20
52787;DHT22;38661;53.152;5.846;2023-07-24T13:45:59;19.40;78.20
52787;DHT22;38661;53.152;5.846;2023-07-24T13:48:28;19.30;78.40
52787;DHT22;38661;53.152;5.846;2023-07-24T13:50:54;19.20;78.50
52787;DHT22;38661;53.152;5.846;2023-07-24T13:53:20;19.10;78.30
52787;DHT22;38661;53.152;5.846;2023-07-24T13:55:46;18.90;78.20
52787;DHT22;38661;53.152;5.846;2023-07-24T13:58:12;18.80;77.90
52787;DHT22;38661;53.152;5.846;2023-07-24T14:00:38;18.80;78.10
52787;DHT22;38661;53.152;5.846;2023-07-24T14:03:04;18.70;78.20
52787;DHT22;38661;53.152;5.846;2023-07-24T14:05:29;18.70;79.30
52787;DHT22;38661;53.152;5.846;2023-07-24T14:07:55;18.60;80.00
52787;DHT22;38661;53.152;5.846;2023-07-24T14:10:21;18.50;81.10
52787;DHT22;38661;53.152;5.846;2023-07-24T14:12:46;18.50;81.60
52787;DHT22;38661;53.152;5.846;2023-07-24T14:15:12;18.40;82.00
52787;DHT22;38661;53.152;5.846;2023-07-24T14:17:38;18.40;82.20
52787;DHT22;38661;53.152;5.846;2023-07-24T14:20:04;18.30;82.10
52787;DHT22;38661;53.152;5.846;2023-07-24T14:22:30;18.20;81.10
52787;DHT22;38661;53.152;5.846;2023-07-24T14:24:56;18.20;80.80
52787;DHT22;38661;53.152;5.846;2023-07-24T14:27:22;18.30;80.50
52787;DHT22;38661;53.152;5.846;2023-07-24T14:29:47;18.30;79.80
52787;DHT22;38661;53.152;5.846;2023-07-24T14:32:13;18.30;79.40
52787;DHT22;38661;53.152;5.846;2023-07-24T14:34:41;18.40;78.90
52787;DHT22;38661;53.152;5.846;2023-07-24T14:37:07;18.50;78.60
52787;DHT22;38661;53.152;5.846;2023-07-24T14:39:32;18.50;78.10
52787;DHT22;38661;53.152;5.846;2023-07-24T14:41:58;18.50;78.30
52787;DHT22;38661;53.152;5.846;2023-07-24T14:44:24;18.60;78.20
52787;DHT22;38661;53.152;5.846;2023-07-24T14:46:50;18.80;77.90
52787;DHT22;38661;53.152;5.846;2023-07-24T14:49:16;18.80;78.10
52787;DHT22;38661;53.152;5.846;2023-07-24T14:51:41;18.90;78.20
52787;DHT22;38661;53.152;5.846;2023-07-24T14:54:07;18.90;78.40
52787;DHT22;38661;53.152;5.846;2023-07-24T14:56:33;19.00;78.10
52787;DHT22;38661;53.152;5.846;2023-07-24T14:58:58;19.00;77.70
52787;DHT22;38661;53.152;5.846;2023-07-24T15:01:24;18.90;77.90
52787;DHT22;38661;53.152;5.846;2023-07-24T15:03:53;18.80;78.00
52787;DHT22;38661;53.152;5.846;2023-07-24T15:06:19;18.70;78.40
52787;DHT22;38661;53.152;5.846;2023-07-24T15:08:44;18.60;78.70
52787;DHT22;38661;53.152;5.846;2023-07-24T15:11:10;18.50;79.00
52787;DHT22;38661;53.152;5.846;2023-07-24T15:13:38;18.40;79.40
52787;DHT22;38661;53.152;5.846;2023-07-24T15:16:04;18.30;79.90
52787;DHT22;38661;53.152;5.846;2023-07-24T15:18:30;18.20;80.60
52787;DHT22;38661;53.152;5.846;2023-07-24T15:20:56;18.20;80.60
52787;DHT22;38661;53.152;5.846;2023-07-24T15:23:23;18.10;81.00
52787;DHT22;38661;53.152;5.846;2023-07-24T15:25:48;18.10;81.10
52787;DHT22;38661;53.152;5.846;2023-07-24T15:28:14;18.10;81.30
52787;DHT22;38661;53.152;5.846;2023-07-24T15:30:40;18.00;81.30
52787;DHT22;38661;53.152;5.846;2023-07-24T15:33:05;18.00;81.20